Terminal Aerodrome Forecast
Issued by NWS

Home | Current Version | Previous Version | Text Only | Print | Product List | Glossary On
Versions: 1 2 3 4 5 6 7 8 9 10 11 12
614
FTUS44 KSJT 242324
TAFSOA
TAF
KSOA 242324Z 2500/2524 18010KT P6SM VCTS SCT050CB
     FM251000 09004KT P6SM SHRA VCTS OVC020CB PROB30 2512/2518 P6SM
      -TSRA OVC025CB
     FM251800 09009KT 6SM -SHRA OVC015 PROB30 2518/2524 6SM -TSRA
      BKN015CB=

USA.gov is the U.S. government's official web portal to all federal, state and local government web resources and services.